sensor_id;sensor_type;location;lat;lon;timestamp;P1;durP1;ratioP1;P2;durP2;ratioP2
39918;SDS011;25589;51.552;13.424;2023-11-22T00:00:40;7.90;;;5.32;;
39918;SDS011;25589;51.552;13.424;2023-11-22T00:03:05;7.60;;;5.25;;
39918;SDS011;25589;51.552;13.424;2023-11-22T00:05:31;8.30;;;5.15;;
39918;SDS011;25589;51.552;13.424;2023-11-22T00:07:57;7.32;;;5.05;;
39918;SDS011;25589;51.552;13.424;2023-11-22T00:10:22;7.93;;;5.03;;
39918;SDS011;25589;51.552;13.424;2023-11-22T00:12:48;8.18;;;4.90;;
39918;SDS011;25589;51.552;13.424;2023-11-22T00:15:14;7.07;;;5.05;;
39918;SDS011;25589;51.552;13.424;2023-11-22T00:17:43;7.05;;;5.10;;
39918;SDS011;25589;51.552;13.424;2023-11-22T00:20:09;8.18;;;5.32;;
39918;SDS011;25589;51.552;13.424;2023-11-22T00:22:35;6.93;;;4.60;;
39918;SDS011;25589;51.552;13.424;2023-11-22T00:25:01;8.95;;;5.00;;
39918;SDS011;25589;51.552;13.424;2023-11-22T00:27:27;7.85;;;5.28;;
39918;SDS011;25589;51.552;13.424;2023-11-22T00:29:54;6.53;;;4.88;;
39918;SDS011;25589;51.552;13.424;2023-11-22T00:32:20;6.47;;;4.97;;
39918;SDS011;25589;51.552;13.424;2023-11-22T00:34:46;7.78;;;4.40;;
39918;SDS011;25589;51.552;13.424;2023-11-22T00:37:12;9.05;;;5.68;;
39918;SDS011;25589;51.552;13.424;2023-11-22T00:39:38;10.02;;;5.43;;
39918;SDS011;25589;51.552;13.424;2023-11-22T00:42:04;8.75;;;5.07;;
39918;SDS011;25589;51.552;13.424;2023-11-22T00:44:30;6.97;;;4.78;;
39918;SDS011;25589;51.552;13.424;2023-11-22T00:46:56;7.32;;;4.93;;
39918;SDS011;25589;51.552;13.424;2023-11-22T00:49:22;9.18;;;5.10;;
39918;SDS011;25589;51.552;13.424;2023-11-22T00:51:48;7.75;;;4.97;;
39918;SDS011;25589;51.552;13.424;2023-11-22T00:54:14;9.00;;;5.90;;
39918;SDS011;25589;51.552;13.424;2023-11-22T00:56:40;11.20;;;5.35;;
39918;SDS011;25589;51.552;13.424;2023-11-22T00:59:06;9.52;;;5.40;;
39918;SDS011;25589;51.552;13.424;2023-11-22T01:01:31;7.72;;;5.15;;
39918;SDS011;25589;51.552;13.424;2023-11-22T01:03:57;8.98;;;5.20;;
39918;SDS011;25589;51.552;13.424;2023-11-22T01:06:23;9.02;;;5.50;;
39918;SDS011;25589;51.552;13.424;2023-11-22T01:08:49;7.07;;;5.10;;
39918;SDS011;25589;51.552;13.424;2023-11-22T01:11:14;8.32;;;4.97;;
39918;SDS011;25589;51.552;13.424;2023-11-22T01:13:40;7.60;;;4.55;;
39918;SDS011;25589;51.552;13.424;2023-11-22T01:16:08;8.25;;;5.60;;
39918;SDS011;25589;51.552;13.424;2023-11-22T01:18:35;9.27;;;5.47;;
39918;SDS011;25589;51.552;13.424;2023-11-22T01:21:01;8.93;;;5.32;;
39918;SDS011;25589;51.552;13.424;2023-11-22T01:23:26;8.65;;;5.32;;
39918;SDS011;25589;51.552;13.424;2023-11-22T01:25:55;9.05;;;5.50;;
39918;SDS011;25589;51.552;13.424;2023-11-22T01:28:20;9.10;;;5.80;;
39918;SDS011;25589;51.552;13.424;2023-11-22T01:30:46;9.90;;;5.70;;
39918;SDS011;25589;51.552;13.424;2023-11-22T01:33:12;9.15;;;5.07;;
39918;SDS011;25589;51.552;13.424;2023-11-22T01:35:38;9.95;;;5.60;;
39918;SDS011;25589;51.552;13.424;2023-11-22T01:38:04;9.15;;;5.80;;
39918;SDS011;25589;51.552;13.424;2023-11-22T01:40:30;8.52;;;5.68;;
39918;SDS011;25589;51.552;13.424;2023-11-22T01:42:56;12.43;;;6.07;;
39918;SDS011;25589;51.552;13.424;2023-11-22T01:45:28;8.70;;;5.63;;
39918;SDS011;25589;51.552;13.424;2023-11-22T01:47:54;8.50;;;5.88;;
39918;SDS011;25589;51.552;13.424;2023-11-22T01:50:20;9.35;;;6.22;;
39918;SDS011;25589;51.552;13.424;2023-11-22T01:52:46;9.00;;;5.97;;
39918;SDS011;25589;51.552;13.424;2023-11-22T01:55:12;10.05;;;5.95;;
39918;SDS011;25589;51.552;13.424;2023-11-22T01:57:41;9.90;;;5.55;;
39918;SDS011;25589;51.552;13.424;2023-11-22T02:00:07;7.95;;;5.57;;
39918;SDS011;25589;51.552;13.424;2023-11-22T02:02:40;10.35;;;6.18;;
39918;SDS011;25589;51.552;13.424;2023-11-22T02:05:07;10.27;;;5.53;;
39918;SDS011;25589;51.552;13.424;2023-11-22T02:07:33;11.77;;;6.70;;
39918;SDS011;25589;51.552;13.424;2023-11-22T02:09:59;10.35;;;6.25;;
39918;SDS011;25589;51.552;13.424;2023-11-22T02:12:25;10.20;;;5.85;;
39918;SDS011;25589;51.552;13.424;2023-11-22T02:14:50;10.50;;;6.28;;
39918;SDS011;25589;51.552;13.424;2023-11-22T02:17:16;10.85;;;6.18;;
39918;SDS011;25589;51.552;13.424;2023-11-22T02:19:42;9.73;;;5.85;;
39918;SDS011;25589;51.552;13.424;2023-11-22T02:22:11;10.07;;;6.10;;
39918;SDS011;25589;51.552;13.424;2023-11-22T02:24:36;10.82;;;6.25;;
39918;SDS011;25589;51.552;13.424;2023-11-22T02:27:02;10.98;;;6.82;;
39918;SDS011;25589;51.552;13.424;2023-11-22T02:29:28;8.88;;;5.90;;
39918;SDS011;25589;51.552;13.424;2023-11-22T02:31:54;11.43;;;5.80;;
39918;SDS011;25589;51.552;13.424;2023-11-22T02:34:20;8.52;;;5.22;;
39918;SDS011;25589;51.552;13.424;2023-11-22T02:36:45;10.68;;;5.85;;
39918;SDS011;25589;51.552;13.424;2023-11-22T02:39:11;9.13;;;5.43;;
39918;SDS011;25589;51.552;13.424;2023-11-22T02:41:39;10.43;;;5.90;;
39918;SDS011;25589;51.552;13.424;2023-11-22T02:44:04;11.10;;;5.63;;
39918;SDS011;25589;51.552;13.424;2023-11-22T02:46:32;11.00;;;6.38;;
39918;SDS011;25589;51.552;13.424;2023-11-22T02:48:59;8.30;;;5.78;;
39918;SDS011;25589;51.552;13.424;2023-11-22T02:51:25;11.02;;;5.82;;
39918;SDS011;25589;51.552;13.424;2023-11-22T02:53:51;10.90;;;5.68;;
39918;SDS011;25589;51.552;13.424;2023-11-22T02:56:17;11.80;;;5.93;;
39918;SDS011;25589;51.552;13.424;2023-11-22T02:58:42;9.50;;;5.60;;
39918;SDS011;25589;51.552;13.424;2023-11-22T03:01:08;9.82;;;6.28;;
39918;SDS011;25589;51.552;13.424;2023-11-22T03:03:34;9.68;;;6.03;;
39918;SDS011;25589;51.552;13.424;2023-11-22T03:06:00;10.10;;;6.60;;
39918;SDS011;25589;51.552;13.424;2023-11-22T03:08:26;10.73;;;6.47;;
39918;SDS011;25589;51.552;13.424;2023-11-22T03:10:53;11.38;;;6.60;;
39918;SDS011;25589;51.552;13.424;2023-11-22T03:13:37;11.93;;;6.90;;
39918;SDS011;25589;51.552;13.424;2023-11-22T03:16:03;10.30;;;5.85;;
39918;SDS011;25589;51.552;13.424;2023-11-22T03:18:29;8.73;;;5.75;;
39918;SDS011;25589;51.552;13.424;2023-11-22T03:20:54;11.88;;;6.47;;
39918;SDS011;25589;51.552;13.424;2023-11-22T03:23:20;12.23;;;6.28;;
39918;SDS011;25589;51.552;13.424;2023-11-22T03:25:47;9.18;;;5.78;;
39918;SDS011;25589;51.552;13.424;2023-11-22T03:28:13;12.52;;;7.03;;
39918;SDS011;25589;51.552;13.424;2023-11-22T03:30:39;10.98;;;5.63;;
39918;SDS011;25589;51.552;13.424;2023-11-22T03:33:05;10.57;;;6.20;;
39918;SDS011;25589;51.552;13.424;2023-11-22T03:35:31;8.95;;;6.15;;
39918;SDS011;25589;51.552;13.424;2023-11-22T03:37:56;10.50;;;6.35;;
39918;SDS011;25589;51.552;13.424;2023-11-22T03:40:22;8.27;;;5.20;;
39918;SDS011;25589;51.552;13.424;2023-11-22T03:42:48;10.43;;;6.57;;
39918;SDS011;25589;51.552;13.424;2023-11-22T03:45:14;11.48;;;6.68;;
39918;SDS011;25589;51.552;13.424;2023-11-22T03:47:39;10.18;;;6.07;;
39918;SDS011;25589;51.552;13.424;2023-11-22T03:50:06;9.57;;;6.15;;
39918;SDS011;25589;51.552;13.424;2023-11-22T03:52:32;9.27;;;5.53;;
39918;SDS011;25589;51.552;13.424;2023-11-22T03:54:57;11.23;;;6.65;;
39918;SDS011;25589;51.552;13.424;2023-11-22T03:57:23;11.60;;;6.50;;
39918;SDS011;25589;51.552;13.424;2023-11-22T03:59:48;10.55;;;6.28;;
39918;SDS011;25589;51.552;13.424;2023-11-22T04:02:14;10.55;;;6.68;;
39918;SDS011;25589;51.552;13.424;2023-11-22T04:04:39;13.13;;;7.25;;
39918;SDS011;25589;51.552;13.424;2023-11-22T04:07:06;8.82;;;6.20;;
39918;SDS011;25589;51.552;13.424;2023-11-22T04:09:32;11.43;;;6.78;;
39918;SDS011;25589;51.552;13.424;2023-11-22T04:11:58;12.00;;;7.32;;
39918;SDS011;25589;51.552;13.424;2023-11-22T04:14:24;15.13;;;7.68;;
39918;SDS011;25589;51.552;13.424;2023-11-22T04:16:52;13.25;;;7.40;;
39918;SDS011;25589;51.552;13.424;2023-11-22T04:19:17;10.73;;;7.20;;
39918;SDS011;25589;51.552;13.424;2023-11-22T04:21:43;10.45;;;7.28;;
39918;SDS011;25589;51.552;13.424;2023-11-22T04:24:09;12.05;;;7.28;;
39918;SDS011;25589;51.552;13.424;2023-11-22T04:26:35;13.77;;;7.82;;
39918;SDS011;25589;51.552;13.424;2023-11-22T04:29:01;12.40;;;7.72;;
39918;SDS011;25589;51.552;13.424;2023-11-22T04:31:27;12.00;;;7.70;;
39918;SDS011;25589;51.552;13.424;2023-11-22T04:33:52;13.45;;;7.97;;
39918;SDS011;25589;51.552;13.424;2023-11-22T04:36:19;12.32;;;8.07;;
39918;SDS011;25589;51.552;13.424;2023-11-22T04:38:44;14.50;;;8.38;;
39918;SDS011;25589;51.552;13.424;2023-11-22T04:41:10;13.20;;;7.78;;
39918;SDS011;25589;51.552;13.424;2023-11-22T04:43:36;14.00;;;8.45;;
39918;SDS011;25589;51.552;13.424;2023-11-22T04:46:02;15.80;;;8.82;;
39918;SDS011;25589;51.552;13.424;2023-11-22T04:48:29;14.57;;;8.52;;
39918;SDS011;25589;51.552;13.424;2023-11-22T04:50:55;15.30;;;8.18;;
39918;SDS011;25589;51.552;13.424;2023-11-22T04:53:20;11.80;;;7.63;;
39918;SDS011;25589;51.552;13.424;2023-11-22T04:55:46;12.88;;;8.20;;
39918;SDS011;25589;51.552;13.424;2023-11-22T04:58:12;15.32;;;8.90;;
39918;SDS011;25589;51.552;13.424;2023-11-22T05:00:37;12.57;;;8.05;;
39918;SDS011;25589;51.552;13.424;2023-11-22T05:03:03;16.10;;;9.25;;
39918;SDS011;25589;51.552;13.424;2023-11-22T05:05:28;15.98;;;8.63;;
39918;SDS011;25589;51.552;13.424;2023-11-22T05:07:54;13.43;;;8.48;;
39918;SDS011;25589;51.552;13.424;2023-11-22T05:10:19;14.82;;;7.85;;
39918;SDS011;25589;51.552;13.424;2023-11-22T05:12:45;16.17;;;8.73;;
39918;SDS011;25589;51.552;13.424;2023-11-22T05:15:10;13.00;;;8.75;;
39918;SDS011;25589;51.552;13.424;2023-11-22T05:17:36;14.02;;;8.63;;
39918;SDS011;25589;51.552;13.424;2023-11-22T05:20:02;13.38;;;8.85;;
39918;SDS011;25589;51.552;13.424;2023-11-22T05:22:29;14.57;;;9.05;;
39918;SDS011;25589;51.552;13.424;2023-11-22T05:24:55;16.35;;;8.13;;
39918;SDS011;25589;51.552;13.424;2023-11-22T05:27:21;14.73;;;8.80;;
39918;SDS011;25589;51.552;13.424;2023-11-22T05:29:46;15.73;;;9.02;;
39918;SDS011;25589;51.552;13.424;2023-11-22T05:32:13;15.13;;;9.15;;
39918;SDS011;25589;51.552;13.424;2023-11-22T05:34:39;13.85;;;8.20;;
39918;SDS011;25589;51.552;13.424;2023-11-22T05:37:05;14.32;;;9.07;;
39918;SDS011;25589;51.552;13.424;2023-11-22T05:39:31;13.50;;;7.53;;
39918;SDS011;25589;51.552;13.424;2023-11-22T05:41:56;14.27;;;8.27;;
39918;SDS011;25589;51.552;13.424;2023-11-22T05:44:22;17.20;;;8.65;;
39918;SDS011;25589;51.552;13.424;2023-11-22T05:46:48;16.35;;;8.77;;
39918;SDS011;25589;51.552;13.424;2023-11-22T05:49:13;17.83;;;9.10;;
39918;SDS011;25589;51.552;13.424;2023-11-22T05:51:39;17.52;;;9.43;;
39918;SDS011;25589;51.552;13.424;2023-11-22T05:54:04;14.55;;;9.13;;
39918;SDS011;25589;51.552;13.424;2023-11-22T05:56:32;16.33;;;8.80;;
39918;SDS011;25589;51.552;13.424;2023-11-22T05:58:57;17.00;;;8.38;;
39918;SDS011;25589;51.552;13.424;2023-11-22T06:01:24;15.27;;;8.13;;
39918;SDS011;25589;51.552;13.424;2023-11-22T06:03:51;13.38;;;8.05;;
39918;SDS011;25589;51.552;13.424;2023-11-22T06:06:17;17.40;;;8.50;;
39918;SDS011;25589;51.552;13.424;2023-11-22T06:08:46;17.27;;;9.68;;
39918;SDS011;25589;51.552;13.424;2023-11-22T06:11:12;16.80;;;9.50;;
39918;SDS011;25589;51.552;13.424;2023-11-22T06:13:38;16.20;;;9.45;;
39918;SDS011;25589;51.552;13.424;2023-11-22T06:16:04;14.57;;;9.40;;
39918;SDS011;25589;51.552;13.424;2023-11-22T06:18:32;13.85;;;8.52;;
39918;SDS011;25589;51.552;13.424;2023-11-22T06:20:59;12.27;;;8.30;;
39918;SDS011;25589;51.552;13.424;2023-11-22T06:23:24;14.40;;;8.40;;
39918;SDS011;25589;51.552;13.424;2023-11-22T06:25:50;16.85;;;8.63;;
39918;SDS011;25589;51.552;13.424;2023-11-22T06:28:16;13.90;;;9.30;;
39918;SDS011;25589;51.552;13.424;2023-11-22T06:30:42;14.57;;;8.52;;
39918;SDS011;25589;51.552;13.424;2023-11-22T06:33:08;14.20;;;8.80;;
39918;SDS011;25589;51.552;13.424;2023-11-22T06:35:35;14.73;;;8.30;;
39918;SDS011;25589;51.552;13.424;2023-11-22T06:38:01;14.85;;;8.65;;
39918;SDS011;25589;51.552;13.424;2023-11-22T06:40:27;15.32;;;8.70;;
39918;SDS011;25589;51.552;13.424;2023-11-22T06:42:54;15.13;;;9.05;;
39918;SDS011;25589;51.552;13.424;2023-11-22T06:45:21;12.63;;;8.05;;
39918;SDS011;25589;51.552;13.424;2023-11-22T06:47:47;17.90;;;9.52;;
39918;SDS011;25589;51.552;13.424;2023-11-22T06:50:12;19.90;;;8.77;;
39918;SDS011;25589;51.552;13.424;2023-11-22T06:52:39;16.20;;;9.27;;
39918;SDS011;25589;51.552;13.424;2023-11-22T06:55:09;13.43;;;8.50;;
39918;SDS011;25589;51.552;13.424;2023-11-22T06:57:36;17.40;;;9.52;;
39918;SDS011;25589;51.552;13.424;2023-11-22T07:00:02;15.45;;;8.07;;
39918;SDS011;25589;51.552;13.424;2023-11-22T07:02:34;14.93;;;9.20;;
39918;SDS011;25589;51.552;13.424;2023-11-22T07:05:00;14.00;;;8.93;;
39918;SDS011;25589;51.552;13.424;2023-11-22T07:07:27;14.95;;;9.57;;
39918;SDS011;25589;51.552;13.424;2023-11-22T07:09:53;18.05;;;10.07;;
39918;SDS011;25589;51.552;13.424;2023-11-22T07:12:19;18.67;;;9.88;;
39918;SDS011;25589;51.552;13.424;2023-11-22T07:14:45;14.30;;;9.25;;
39918;SDS011;25589;51.552;13.424;2023-11-22T07:17:10;18.83;;;9.52;;
39918;SDS011;25589;51.552;13.424;2023-11-22T07:19:36;18.55;;;10.02;;
39918;SDS011;25589;51.552;13.424;2023-11-22T07:22:06;13.30;;;8.73;;
39918;SDS011;25589;51.552;13.424;2023-11-22T07:24:41;18.80;;;10.23;;
39918;SDS011;25589;51.552;13.424;2023-11-22T07:27:11;17.60;;;10.00;;
39918;SDS011;25589;51.552;13.424;2023-11-22T07:29:37;18.38;;;9.50;;
39918;SDS011;25589;51.552;13.424;2023-11-22T07:32:05;12.75;;;8.82;;
39918;SDS011;25589;51.552;13.424;2023-11-22T07:34:32;16.23;;;9.35;;
39918;SDS011;25589;51.552;13.424;2023-11-22T07:36:58;15.07;;;8.93;;
39918;SDS011;25589;51.552;13.424;2023-11-22T07:39:24;14.13;;;7.38;;
39918;SDS011;25589;51.552;13.424;2023-11-22T07:41:52;15.85;;;9.27;;
39918;SDS011;25589;51.552;13.424;2023-11-22T07:44:20;21.83;;;10.93;;
39918;SDS011;25589;51.552;13.424;2023-11-22T07:46:49;14.32;;;8.13;;
39918;SDS011;25589;51.552;13.424;2023-11-22T07:49:14;13.60;;;7.30;;
39918;SDS011;25589;51.552;13.424;2023-11-22T07:51:40;17.70;;;9.15;;
39918;SDS011;25589;51.552;13.424;2023-11-22T07:54:06;14.75;;;7.35;;
39918;SDS011;25589;51.552;13.424;2023-11-22T07:56:32;14.57;;;8.48;;
39918;SDS011;25589;51.552;13.424;2023-11-22T07:58:58;19.23;;;9.63;;
39918;SDS011;25589;51.552;13.424;2023-11-22T08:01:24;21.05;;;11.00;;
39918;SDS011;25589;51.552;13.424;2023-11-22T08:03:50;15.38;;;8.13;;
39918;SDS011;25589;51.552;13.424;2023-11-22T08:06:17;18.33;;;9.63;;
39918;SDS011;25589;51.552;13.424;2023-11-22T08:08:42;14.70;;;8.70;;
39918;SDS011;25589;51.552;13.424;2023-11-22T08:11:10;13.57;;;7.60;;
39918;SDS011;25589;51.552;13.424;2023-11-22T08:13:43;14.60;;;8.43;;
39918;SDS011;25589;51.552;13.424;2023-11-22T08:16:10;13.60;;;8.43;;
39918;SDS011;25589;51.552;13.424;2023-11-22T08:18:38;18.90;;;10.65;;
39918;SDS011;25589;51.552;13.424;2023-11-22T08:21:04;12.80;;;7.80;;
39918;SDS011;25589;51.552;13.424;2023-11-22T08:23:30;12.32;;;7.65;;
39918;SDS011;25589;51.552;13.424;2023-11-22T08:25:58;13.15;;;8.05;;
39918;SDS011;25589;51.552;13.424;2023-11-22T08:28:24;14.10;;;7.75;;
39918;SDS011;25589;51.552;13.424;2023-11-22T08:30:51;13.05;;;7.25;;
39918;SDS011;25589;51.552;13.424;2023-11-22T08:33:17;13.52;;;6.97;;
39918;SDS011;25589;51.552;13.424;2023-11-22T08:35:42;11.98;;;7.60;;
39918;SDS011;25589;51.552;13.424;2023-11-22T08:38:09;12.05;;;7.60;;
39918;SDS011;25589;51.552;13.424;2023-11-22T08:40:35;14.60;;;7.40;;
39918;SDS011;25589;51.552;13.424;2023-11-22T08:43:03;16.90;;;7.57;;
39918;SDS011;25589;51.552;13.424;2023-11-22T08:45:29;12.82;;;7.45;;
39918;SDS011;25589;51.552;13.424;2023-11-22T08:47:57;12.43;;;7.72;;
39918;SDS011;25589;51.552;13.424;2023-11-22T08:50:24;13.90;;;7.05;;
39918;SDS011;25589;51.552;13.424;2023-11-22T08:52:49;10.80;;;6.75;;
39918;SDS011;25589;51.552;13.424;2023-11-22T08:55:18;10.82;;;7.20;;
39918;SDS011;25589;51.552;13.424;2023-11-22T08:57:47;14.10;;;7.00;;
39918;SDS011;25589;51.552;13.424;2023-11-22T09:00:17;13.65;;;7.43;;
39918;SDS011;25589;51.552;13.424;2023-11-22T09:02:47;14.00;;;7.68;;
39918;SDS011;25589;51.552;13.424;2023-11-22T09:05:13;16.05;;;8.38;;
39918;SDS011;25589;51.552;13.424;2023-11-22T09:07:41;14.95;;;7.53;;
39918;SDS011;25589;51.552;13.424;2023-11-22T09:10:09;12.57;;;7.60;;
39918;SDS011;25589;51.552;13.424;2023-11-22T09:12:39;12.43;;;7.55;;
39918;SDS011;25589;51.552;13.424;2023-11-22T09:15:09;14.95;;;7.68;;
39918;SDS011;25589;51.552;13.424;2023-11-22T09:17:41;14.85;;;8.80;;
39918;SDS011;25589;51.552;13.424;2023-11-22T09:20:11;12.60;;;7.93;;
39918;SDS011;25589;51.552;13.424;2023-11-22T09:22:53;15.73;;;7.93;;
39918;SDS011;25589;51.552;13.424;2023-11-22T09:25:23;12.90;;;7.20;;
39918;SDS011;25589;51.552;13.424;2023-11-22T09:27:51;11.00;;;7.38;;
39918;SDS011;25589;51.552;13.424;2023-11-22T09:30:21;11.93;;;7.13;;
39918;SDS011;25589;51.552;13.424;2023-11-22T09:33:04;12.95;;;7.90;;
39918;SDS011;25589;51.552;13.424;2023-11-22T09:35:31;13.88;;;8.23;;
39918;SDS011;25589;51.552;13.424;2023-11-22T09:37:57;13.07;;;7.88;;
39918;SDS011;25589;51.552;13.424;2023-11-22T09:40:24;12.90;;;7.97;;
39918;SDS011;25589;51.552;13.424;2023-11-22T09:42:51;14.60;;;7.75;;
39918;SDS011;25589;51.552;13.424;2023-11-22T09:45:18;15.35;;;8.20;;
39918;SDS011;25589;51.552;13.424;2023-11-22T09:47:44;14.43;;;8.07;;
39918;SDS011;25589;51.552;13.424;2023-11-22T09:50:10;13.77;;;8.25;;
39918;SDS011;25589;51.552;13.424;2023-11-22T09:52:46;13.15;;;8.00;;
39918;SDS011;25589;51.552;13.424;2023-11-22T09:55:16;12.77;;;7.85;;
39918;SDS011;25589;51.552;13.424;2023-11-22T09:57:42;16.67;;;7.47;;
39918;SDS011;25589;51.552;13.424;2023-11-22T10:00:09;12.85;;;7.70;;
39918;SDS011;25589;51.552;13.424;2023-11-22T10:02:39;14.57;;;7.97;;
39918;SDS011;25589;51.552;13.424;2023-11-22T10:05:06;15.95;;;7.93;;
39918;SDS011;25589;51.552;13.424;2023-11-22T10:07:33;14.73;;;8.23;;
39918;SDS011;25589;51.552;13.424;2023-11-22T10:10:01;11.43;;;7.13;;
39918;SDS011;25589;51.552;13.424;2023-11-22T10:12:30;11.23;;;7.32;;
39918;SDS011;25589;51.552;13.424;2023-11-22T10:15:08;12.18;;;7.90;;
39918;SDS011;25589;51.552;13.424;2023-11-22T10:17:39;14.10;;;8.77;;
39918;SDS011;25589;51.552;13.424;2023-11-22T10:20:05;13.15;;;7.72;;
39918;SDS011;25589;51.552;13.424;2023-11-22T10:22:46;13.63;;;8.07;;
39918;SDS011;25589;51.552;13.424;2023-11-22T10:25:15;11.43;;;7.32;;
39918;SDS011;25589;51.552;13.424;2023-11-22T10:27:43;13.05;;;7.53;;
39918;SDS011;25589;51.552;13.424;2023-11-22T10:30:10;12.75;;;7.53;;
39918;SDS011;25589;51.552;13.424;2023-11-22T10:32:37;11.50;;;7.68;;
39918;SDS011;25589;51.552;13.424;2023-11-22T10:35:04;11.05;;;7.55;;
39918;SDS011;25589;51.552;13.424;2023-11-22T10:37:31;12.68;;;7.75;;
39918;SDS011;25589;51.552;13.424;2023-11-22T10:39:59;12.05;;;7.70;;
39918;SDS011;25589;51.552;13.424;2023-11-22T10:42:25;11.20;;;7.47;;
39918;SDS011;25589;51.552;13.424;2023-11-22T10:44:54;13.48;;;7.70;;
39918;SDS011;25589;51.552;13.424;2023-11-22T10:47:22;15.38;;;7.55;;
39918;SDS011;25589;51.552;13.424;2023-11-22T10:49:48;12.48;;;7.57;;
39918;SDS011;25589;51.552;13.424;2023-11-22T10:52:14;13.15;;;7.88;;
39918;SDS011;25589;51.552;13.424;2023-11-22T10:54:44;9.65;;;7.20;;
39918;SDS011;25589;51.552;13.424;2023-11-22T10:59:44;13.63;;;8.15;;
39918;SDS011;25589;51.552;13.424;2023-11-22T11:02:18;14.10;;;7.88;;
39918;SDS011;25589;51.552;13.424;2023-11-22T11:04:51;13.40;;;7.75;;
39918;SDS011;25589;51.552;13.424;2023-11-22T11:07:23;11.20;;;7.15;;
39918;SDS011;25589;51.552;13.424;2023-11-22T11:09:52;11.18;;;7.38;;
39918;SDS011;25589;51.552;13.424;2023-11-22T11:12:20;13.15;;;8.00;;
39918;SDS011;25589;51.552;13.424;2023-11-22T11:14:46;11.88;;;7.05;;
39918;SDS011;25589;51.552;13.424;2023-11-22T11:17:12;9.57;;;6.32;;
39918;SDS011;25589;51.552;13.424;2023-11-22T11:19:39;12.70;;;6.63;;
39918;SDS011;25589;51.552;13.424;2023-11-22T11:22:10;11.02;;;6.68;;
39918;SDS011;25589;51.552;13.424;2023-11-22T11:24:39;12.13;;;6.50;;
39918;SDS011;25589;51.552;13.424;2023-11-22T11:27:09;12.20;;;6.93;;
39918;SDS011;25589;51.552;13.424;2023-11-22T11:29:36;8.82;;;6.25;;
39918;SDS011;25589;51.552;13.424;2023-11-22T11:32:50;10.63;;;6.80;;
39918;SDS011;25589;51.552;13.424;2023-11-22T11:35:04;13.05;;;7.47;;
39918;SDS011;25589;51.552;13.424;2023-11-22T11:37:33;10.25;;;6.80;;
39918;SDS011;25589;51.552;13.424;2023-11-22T11:39:58;10.30;;;6.82;;
39918;SDS011;25589;51.552;13.424;2023-11-22T11:42:24;11.23;;;7.43;;
39918;SDS011;25589;51.552;13.424;2023-11-22T11:45:02;11.07;;;7.25;;
39918;SDS011;25589;51.552;13.424;2023-11-22T11:47:31;10.13;;;6.20;;
39918;SDS011;25589;51.552;13.424;2023-11-22T11:49:56;10.13;;;6.53;;
39918;SDS011;25589;51.552;13.424;2023-11-22T11:52:24;9.20;;;6.70;;
39918;SDS011;25589;51.552;13.424;2023-11-22T11:54:51;11.07;;;6.93;;
39918;SDS011;25589;51.552;13.424;2023-11-22T11:57:16;10.48;;;6.60;;
39918;SDS011;25589;51.552;13.424;2023-11-22T11:59:42;11.85;;;6.65;;
39918;SDS011;25589;51.552;13.424;2023-11-22T12:02:08;9.52;;;6.10;;
39918;SDS011;25589;51.552;13.424;2023-11-22T12:04:33;13.05;;;6.95;;
39918;SDS011;25589;51.552;13.424;2023-11-22T12:06:59;11.02;;;6.28;;
39918;SDS011;25589;51.552;13.424;2023-11-22T12:09:25;10.73;;;6.38;;
39918;SDS011;25589;51.552;13.424;2023-11-22T12:11:51;9.80;;;6.63;;
39918;SDS011;25589;51.552;13.424;2023-11-22T12:14:20;10.32;;;6.47;;
39918;SDS011;25589;51.552;13.424;2023-11-22T12:16:50;10.60;;;6.55;;
39918;SDS011;25589;51.552;13.424;2023-11-22T12:19:20;11.43;;;6.35;;
39918;SDS011;25589;51.552;13.424;2023-11-22T12:21:47;7.85;;;5.93;;
39918;SDS011;25589;51.552;13.424;2023-11-22T12:24:14;9.20;;;6.05;;
39918;SDS011;25589;51.552;13.424;2023-11-22T12:26:44;9.48;;;6.18;;
39918;SDS011;25589;51.552;13.424;2023-11-22T12:29:11;9.35;;;6.10;;
39918;SDS011;25589;51.552;13.424;2023-11-22T12:31:48;8.48;;;5.65;;
39918;SDS011;25589;51.552;13.424;2023-11-22T12:34:17;9.50;;;6.25;;
39918;SDS011;25589;51.552;13.424;2023-11-22T12:36:42;10.43;;;6.38;;
39918;SDS011;25589;51.552;13.424;2023-11-22T12:39:10;11.18;;;6.57;;
39918;SDS011;25589;51.552;13.424;2023-11-22T12:41:41;9.07;;;6.18;;
39918;SDS011;25589;51.552;13.424;2023-11-22T12:44:08;9.13;;;6.15;;
39918;SDS011;25589;51.552;13.424;2023-11-22T12:46:52;10.02;;;6.10;;
39918;SDS011;25589;51.552;13.424;2023-11-22T12:49:25;9.57;;;6.25;;
39918;SDS011;25589;51.552;13.424;2023-11-22T12:51:53;12.02;;;6.40;;
39918;SDS011;25589;51.552;13.424;2023-11-22T12:54:20;10.32;;;6.47;;
39918;SDS011;25589;51.552;13.424;2023-11-22T12:56:47;9.02;;;6.47;;
39918;SDS011;25589;51.552;13.424;2023-11-22T12:59:14;10.52;;;7.00;;
39918;SDS011;25589;51.552;13.424;2023-11-22T13:01:40;9.02;;;6.53;;
39918;SDS011;25589;51.552;13.424;2023-11-22T13:04:05;9.02;;;6.43;;
39918;SDS011;25589;51.552;13.424;2023-11-22T13:06:31;9.23;;;6.25;;
39918;SDS011;25589;51.552;13.424;2023-11-22T13:08:57;10.43;;;6.38;;
39918;SDS011;25589;51.552;13.424;2023-11-22T13:11:22;10.02;;;6.15;;
39918;SDS011;25589;51.552;13.424;2023-11-22T13:13:49;10.25;;;6.28;;
39918;SDS011;25589;51.552;13.424;2023-11-22T13:16:15;9.70;;;6.22;;
39918;SDS011;25589;51.552;13.424;2023-11-22T13:18:44;11.13;;;6.78;;
39918;SDS011;25589;51.552;13.424;2023-11-22T13:21:09;11.02;;;6.50;;
39918;SDS011;25589;51.552;13.424;2023-11-22T13:23:35;9.70;;;6.80;;
39918;SDS011;25589;51.552;13.424;2023-11-22T13:26:01;9.82;;;6.47;;
39918;SDS011;25589;51.552;13.424;2023-11-22T13:28:27;15.65;;;6.70;;
39918;SDS011;25589;51.552;13.424;2023-11-22T13:30:52;9.65;;;6.00;;
39918;SDS011;25589;51.552;13.424;2023-11-22T13:33:19;10.25;;;6.60;;
39918;SDS011;25589;51.552;13.424;2023-11-22T13:35:44;8.80;;;5.88;;
39918;SDS011;25589;51.552;13.424;2023-11-22T13:38:11;9.70;;;6.88;;
39918;SDS011;25589;51.552;13.424;2023-11-22T13:40:37;10.45;;;6.93;;
39918;SDS011;25589;51.552;13.424;2023-11-22T13:43:06;9.02;;;6.30;;
39918;SDS011;25589;51.552;13.424;2023-11-22T13:45:32;9.80;;;6.75;;
39918;SDS011;25589;51.552;13.424;2023-11-22T13:48:01;11.48;;;6.03;;
39918;SDS011;25589;51.552;13.424;2023-11-22T13:50:31;11.40;;;7.03;;
39918;SDS011;25589;51.552;13.424;2023-11-22T13:52:57;11.00;;;6.18;;
39918;SDS011;25589;51.552;13.424;2023-11-22T13:55:24;8.63;;;6.15;;
39918;SDS011;25589;51.552;13.424;2023-11-22T14:00:16;9.75;;;6.68;;
39918;SDS011;25589;51.552;13.424;2023-11-22T14:02:48;8.97;;;5.93;;
39918;SDS011;25589;51.552;13.424;2023-11-22T14:05:18;12.40;;;7.53;;
39918;SDS011;25589;51.552;13.424;2023-11-22T14:07:43;10.60;;;7.10;;
39918;SDS011;25589;51.552;13.424;2023-11-22T14:10:10;10.45;;;7.63;;
39918;SDS011;25589;51.552;13.424;2023-11-22T14:12:36;12.82;;;8.68;;
39918;SDS011;25589;51.552;13.424;2023-11-22T14:15:02;13.05;;;7.93;;
39918;SDS011;25589;51.552;13.424;2023-11-22T14:17:29;12.70;;;7.95;;
39918;SDS011;25589;51.552;13.424;2023-11-22T14:19:55;11.20;;;7.15;;
39918;SDS011;25589;51.552;13.424;2023-11-22T14:22:21;12.63;;;7.95;;
39918;SDS011;25589;51.552;13.424;2023-11-22T14:24:51;10.75;;;6.90;;
39918;SDS011;25589;51.552;13.424;2023-11-22T14:27:17;13.23;;;7.57;;